createdAt,value
2019-02-08T00:04:03.087Z,34.97
2019-02-08T00:06:33.187Z,31.97
2019-02-08T00:09:04.830Z,30.33
2019-02-08T00:11:33.412Z,30.33
2019-02-08T00:14:05.066Z,37.63
2019-02-08T00:16:33.630Z,35.07
2019-02-08T00:19:02.267Z,39.00
2019-02-08T00:21:31.269Z,36.00
2019-02-08T00:24:01.548Z,35.60
2019-02-08T00:26:32.850Z,37.63
2019-02-08T00:29:01.421Z,43.80
2019-02-08T00:31:32.166Z,37.87
2019-02-08T00:34:03.895Z,35.13
2019-02-08T00:36:34.020Z,39.73
2019-02-08T00:39:08.412Z,33.10
2019-02-08T00:41:37.007Z,42.43
2019-02-08T00:44:05.981Z,35.20
2019-02-08T00:46:34.954Z,33.70
2019-02-08T00:49:03.518Z,35.03
2019-02-08T00:51:32.103Z,34.70
2019-02-08T00:54:02.809Z,37.83
2019-02-08T00:56:31.736Z,42.43
2019-02-08T00:59:03.282Z,38.80
2019-02-08T01:01:35.020Z,35.90
2019-02-08T01:04:03.664Z,38.60
2019-02-08T01:06:32.391Z,38.00
2019-02-08T01:09:00.960Z,36.13
2019-02-08T01:11:30.869Z,37.70
2019-02-08T01:14:00.507Z,39.80
2019-02-08T01:16:29.345Z,38.30
2019-02-08T01:18:57.904Z,38.13
2019-02-08T01:21:29.775Z,38.80
2019-02-08T01:23:58.337Z,33.30
2019-02-08T01:26:26.923Z,47.83
2019-02-08T01:28:55.488Z,36.23
2019-02-08T01:31:24.068Z,35.83
2019-02-08T01:33:52.633Z,28.20
2019-02-08T01:36:21.217Z,46.37
2019-02-08T01:38:52.515Z,34.73
2019-02-08T01:41:21.170Z,33.37
2019-02-08T01:43:49.736Z,35.37
2019-02-08T01:46:18.316Z,29.33
2019-02-08T01:48:46.878Z,37.43
2019-02-08T01:51:15.466Z,35.97
2019-02-08T01:53:48.639Z,39.67
2019-02-08T01:56:14.725Z,31.70
2019-02-08T01:58:43.281Z,32.23
2019-02-08T02:01:11.912Z,33.10
2019-02-08T02:03:40.499Z,37.73
2019-02-08T02:06:09.414Z,35.93
2019-02-08T02:08:38.004Z,36.43
2019-02-08T02:11:06.640Z,40.90
2019-02-08T02:13:35.223Z,33.63
2019-02-08T02:16:04.432Z,44.80
2019-02-08T02:18:35.925Z,42.10
2019-02-08T02:21:04.646Z,33.63
2019-02-08T02:23:33.218Z,37.53
2019-02-08T02:26:03.285Z,32.77
2019-02-08T02:28:34.380Z,40.20
2019-02-08T02:31:02.991Z,33.53
2019-02-08T02:33:34.580Z,41.80
2019-02-08T02:36:03.207Z,38.73
2019-02-08T02:38:34.656Z,32.40
2019-02-08T02:41:03.363Z,35.30
2019-02-08T02:43:34.734Z,38.43
2019-02-08T02:46:03.290Z,32.53
2019-02-08T02:48:34.974Z,34.10
2019-02-08T02:51:03.632Z,35.57
2019-02-08T02:53:32.606Z,40.73
2019-02-08T02:56:03.925Z,38.47
2019-02-08T02:58:35.642Z,30.47
2019-02-08T03:01:04.717Z,35.20
2019-02-08T03:03:33.657Z,35.93
2019-02-08T03:06:03.764Z,37.57
2019-02-08T03:08:33.879Z,35.97
2019-02-08T03:11:04.072Z,37.50
2019-02-08T03:13:32.816Z,39.70
2019-02-08T03:16:01.368Z,40.73
2019-02-08T03:18:31.975Z,33.50
2019-02-08T03:21:02.593Z,41.33
2019-02-08T03:23:34.395Z,34.17
2019-02-08T03:26:02.958Z,31.60
2019-02-08T03:28:33.053Z,41.57
2019-02-08T03:31:03.140Z,32.30
2019-02-08T03:33:34.563Z,44.50
2019-02-08T03:36:03.120Z,41.40
2019-02-08T03:38:33.604Z,35.70
2019-02-08T03:41:03.800Z,33.43
2019-02-08T03:43:34.353Z,40.47
2019-02-08T03:46:02.917Z,44.90
2019-02-08T03:48:34.259Z,40.27
2019-02-08T03:51:02.964Z,36.13
2019-02-08T03:53:33.063Z,33.60
2019-02-08T03:56:03.138Z,39.50
2019-02-08T03:58:33.245Z,41.00
2019-02-08T04:01:05.002Z,30.03
2019-02-08T04:03:33.648Z,36.10
2019-02-08T04:06:03.263Z,44.10
2019-02-08T04:08:35.115Z,44.63
2019-02-08T04:11:03.742Z,37.33
2019-02-08T04:13:33.935Z,40.33
2019-02-08T04:16:05.609Z,43.27
2019-02-08T04:18:34.260Z,34.40
2019-02-08T04:21:02.822Z,32.63
2019-02-08T04:23:31.410Z,38.33
2019-02-08T04:26:02.118Z,35.83
2019-02-08T04:28:32.436Z,38.30
2019-02-08T04:31:01.004Z,39.23
2019-02-08T04:33:29.593Z,35.73
2019-02-08T04:35:58.139Z,38.90
2019-02-08T04:38:26.725Z,33.97
2019-02-08T04:40:55.689Z,37.57
2019-02-08T04:43:24.274Z,39.17
2019-02-08T04:45:52.836Z,34.10
2019-02-08T04:48:21.479Z,35.63
2019-02-08T04:50:50.046Z,39.73
2019-02-08T04:53:18.612Z,44.50
2019-02-08T04:55:47.579Z,33.90
2019-02-08T04:58:16.161Z,33.60
2019-02-08T05:00:44.786Z,30.87
2019-02-08T05:03:16.031Z,39.37
2019-02-08T05:05:44.783Z,39.40
2019-02-08T05:08:13.363Z,38.67
2019-02-08T05:10:42.003Z,36.33
2019-02-08T05:13:10.563Z,38.57
2019-02-08T05:15:39.294Z,30.80
2019-02-08T05:18:08.310Z,38.50
2019-02-08T05:20:37.366Z,31.30
2019-02-08T05:23:06.059Z,35.67
2019-02-08T05:25:35.072Z,51.63
2019-02-08T05:28:03.655Z,37.23
2019-02-08T05:30:35.342Z,37.50
2019-02-08T05:33:04.793Z,36.13
2019-02-08T05:35:33.515Z,32.20
2019-02-08T05:38:02.140Z,42.10
2019-02-08T05:40:32.668Z,38.10
2019-02-08T05:43:03.919Z,44.73
2019-02-08T05:45:34.032Z,32.60
2019-02-08T05:48:05.741Z,31.23
2019-02-08T05:50:34.307Z,35.33
2019-02-08T05:53:05.948Z,29.13
2019-02-08T05:55:35.086Z,33.10
2019-02-08T05:58:09.456Z,40.10
2019-02-08T06:00:42.414Z,34.57
2019-02-08T06:03:11.037Z,29.93
2019-02-08T06:05:41.568Z,31.77
2019-02-08T06:08:10.561Z,40.60
2019-02-08T06:10:39.218Z,30.83
2019-02-08T06:13:09.118Z,33.63
2019-02-08T06:15:38.882Z,25.13
2019-02-08T06:18:09.251Z,35.10
2019-02-08T06:20:38.089Z,28.37
2019-02-08T06:29:29.010Z,36.00
2019-02-08T06:31:58.088Z,48.97
2019-02-08T06:34:26.986Z,36.83
2019-02-08T06:36:55.602Z,33.43
2019-02-08T06:39:24.579Z,29.83
2019-02-08T06:41:56.265Z,39.17
2019-02-08T06:44:24.899Z,32.33
2019-02-08T06:46:53.642Z,39.30
2019-02-08T06:49:25.402Z,38.90
2019-02-08T06:51:54.670Z,39.20
2019-02-08T06:54:23.371Z,29.53
2019-02-08T06:57:01.028Z,40.17
2019-02-08T06:59:31.757Z,29.40
2019-02-08T07:02:17.064Z,34.27
2019-02-08T07:04:53.298Z,35.07
2019-02-08T07:07:32.395Z,30.67
2019-02-08T07:10:05.267Z,32.70
2019-02-08T07:12:38.794Z,31.47
2019-02-08T07:15:17.066Z,28.87
2019-02-08T07:17:50.730Z,33.50
2019-02-08T07:20:26.932Z,31.23
2019-02-08T07:23:13.340Z,23.90
2019-02-08T07:25:43.540Z,33.30
2019-02-08T07:31:38.763Z,23.07
2019-02-08T07:34:09.064Z,21.00
2019-02-08T07:36:39.411Z,24.80
2019-02-08T07:39:27.033Z,28.50
2019-02-08T07:42:06.814Z,28.63
2019-02-08T07:44:38.375Z,21.87
2019-02-08T07:47:08.753Z,21.67
2019-02-08T07:49:46.507Z,26.30
2019-02-08T07:52:32.655Z,20.63
2019-02-08T07:55:05.349Z,19.00
2019-02-08T07:57:54.424Z,19.27
2019-02-08T08:03:25.378Z,16.23
2019-02-08T08:05:56.162Z,24.87
2019-02-08T08:08:32.454Z,19.80
2019-02-08T08:11:21.200Z,19.63
2019-02-08T08:13:51.491Z,15.17
2019-02-08T08:16:24.754Z,14.43
2019-02-08T08:18:55.915Z,14.13
2019-02-08T08:21:42.436Z,14.80
2019-02-08T08:24:21.826Z,14.50
2019-02-08T08:27:04.301Z,15.17
2019-02-08T08:29:36.947Z,11.53
2019-02-08T08:32:08.442Z,13.73
2019-02-08T08:34:49.496Z,13.67
2019-02-08T08:37:41.031Z,17.77
2019-02-08T08:40:17.955Z,12.30
2019-02-08T08:43:17.042Z,11.63
2019-02-08T08:46:23.671Z,15.07
2019-02-08T08:49:26.845Z,7.80
2019-02-08T08:52:10.086Z,11.70
2019-02-08T08:54:59.865Z,8.30
2019-02-08T08:57:31.654Z,9.43
2019-02-08T09:00:03.585Z,9.30
2019-02-08T09:02:56.762Z,8.03
2019-02-08T09:05:29.001Z,12.80
2019-02-08T09:08:26.363Z,13.30
2019-02-08T09:11:07.837Z,6.20
2019-02-08T09:13:52.237Z,11.13
2019-02-08T09:16:41.476Z,10.27
2019-02-08T09:19:35.136Z,11.13
2019-02-08T09:22:31.758Z,8.97
2019-02-08T09:25:31.655Z,10.00
2019-02-08T09:28:21.362Z,7.33
2019-02-08T09:30:58.892Z,8.53
2019-02-08T09:33:46.766Z,19.67
2019-02-08T09:36:24.253Z,7.87
2019-02-08T09:39:20.094Z,8.93
2019-02-08T09:42:09.562Z,5.67
2019-02-08T09:44:57.609Z,8.40
2019-02-08T09:47:41.052Z,7.40
2019-02-08T09:50:21.807Z,6.50
2019-02-08T09:53:19.236Z,9.50
2019-02-08T09:56:16.108Z,10.50
2019-02-08T09:59:07.156Z,8.27
2019-02-08T10:02:01.877Z,17.17
2019-02-08T10:04:33.477Z,11.10
2019-02-08T10:07:22.346Z,9.50
2019-02-08T10:10:15.911Z,9.80
2019-02-08T10:12:53.358Z,5.90
2019-02-08T10:15:58.191Z,7.87
2019-02-08T10:18:35.314Z,6.30
2019-02-08T10:21:28.132Z,7.10
2019-02-08T10:24:14.738Z,7.90
2019-02-08T10:27:12.347Z,8.03
2019-02-08T10:29:52.920Z,7.83
2019-02-08T10:32:47.227Z,9.20
2019-02-08T10:35:36.228Z,7.20
2019-02-08T10:38:36.448Z,14.93
2019-02-08T10:41:41.169Z,11.87
2019-02-08T10:44:21.641Z,9.63
2019-02-08T10:47:00.500Z,10.40
2019-02-08T10:49:57.805Z,4.20
2019-02-08T10:52:41.446Z,8.00
2019-02-08T10:55:46.444Z,7.83
2019-02-08T10:58:53.035Z,5.70
2019-02-08T11:01:41.754Z,10.83
2019-02-08T11:04:15.755Z,12.97
2019-02-08T11:06:59.179Z,14.30
2019-02-08T11:09:45.925Z,6.97
2019-02-08T11:12:50.845Z,8.03
2019-02-08T11:15:49.773Z,5.50
2019-02-08T11:18:36.747Z,6.10
2019-02-08T11:21:05.663Z,8.10
2019-02-08T11:23:34.358Z,9.90
2019-02-08T11:26:03.564Z,8.80
2019-02-08T11:28:32.223Z,7.23
2019-02-08T11:31:00.836Z,10.50
2019-02-08T11:33:29.560Z,16.30
2019-02-08T11:36:00.915Z,5.63
2019-02-08T11:38:29.567Z,6.50
2019-02-08T11:40:58.592Z,4.87
2019-02-08T11:43:27.135Z,8.83
2019-02-08T11:45:55.713Z,9.30
2019-02-08T11:48:27.394Z,9.50
2019-02-08T11:50:56.033Z,12.17
2019-02-08T11:53:24.581Z,5.93
2019-02-08T11:55:53.151Z,9.93
2019-02-08T11:58:21.779Z,7.03
2019-02-08T12:00:52.061Z,6.33
2019-02-08T12:03:20.692Z,7.00
2019-02-08T12:05:49.340Z,8.77
2019-02-08T12:08:17.971Z,10.87
2019-02-08T12:10:48.923Z,7.77
2019-02-08T12:13:17.482Z,8.13
2019-02-08T12:15:46.914Z,11.40
2019-02-08T12:18:15.463Z,9.90
2019-02-08T12:20:44.467Z,7.60
2019-02-08T12:23:13.046Z,16.03
2019-02-08T12:25:41.702Z,7.47
2019-02-08T12:28:10.420Z,14.50
2019-02-08T12:30:44.081Z,8.47
2019-02-08T12:33:12.627Z,5.90
2019-02-08T12:35:41.292Z,9.07
2019-02-08T12:38:09.898Z,13.53
2019-02-08T12:40:38.469Z,6.67
2019-02-08T12:43:10.000Z,8.50
2019-02-08T12:45:38.550Z,14.03
2019-02-08T12:48:07.301Z,4.97
2019-02-08T12:50:35.838Z,9.33
2019-02-08T12:53:04.552Z,13.10
2019-02-08T12:55:33.627Z,5.73
2019-02-08T12:58:02.184Z,6.50
2019-02-08T13:00:32.469Z,6.50
2019-02-08T13:03:01.052Z,7.83
2019-02-08T13:05:29.732Z,9.90
2019-02-08T13:07:58.314Z,6.43
2019-02-08T13:10:31.753Z,7.00
2019-02-08T13:13:01.202Z,6.30
2019-02-08T13:15:30.457Z,10.60
2019-02-08T13:17:59.090Z,7.50
2019-02-08T13:20:27.718Z,6.67
2019-02-08T13:22:57.604Z,4.23
2019-02-08T13:25:26.233Z,6.33
2019-02-08T13:27:55.194Z,4.50
2019-02-08T13:30:33.984Z,6.30
2019-02-08T13:33:05.809Z,5.67
2019-02-08T13:35:37.111Z,9.73
2019-02-08T13:38:05.671Z,9.53
2019-02-08T13:40:34.225Z,21.57
2019-02-08T13:43:03.148Z,6.07
2019-02-08T13:45:33.287Z,7.40
2019-02-08T13:48:02.091Z,10.13
2019-02-08T13:50:34.990Z,5.07
2019-02-08T13:53:03.625Z,6.83
2019-02-08T13:55:32.523Z,5.57
2019-02-08T13:58:01.174Z,8.33
2019-02-08T14:00:32.513Z,6.13
2019-02-08T14:03:03.991Z,11.70
2019-02-08T14:05:35.869Z,9.60
2019-02-08T14:08:07.906Z,7.60
2019-02-08T14:10:36.917Z,5.13
2019-02-08T14:13:06.055Z,4.53
2019-02-08T14:15:35.689Z,9.73
2019-02-08T14:18:04.690Z,9.83
2019-02-08T14:20:33.632Z,5.93
2019-02-08T14:23:02.208Z,8.43
2019-02-08T14:25:32.566Z,12.60
2019-02-08T14:28:03.917Z,5.10
2019-02-08T14:30:41.293Z,5.60
2019-02-08T14:33:09.927Z,5.03
2019-02-08T14:35:38.821Z,6.23
2019-02-08T14:38:10.454Z,8.10
2019-02-08T14:40:38.999Z,7.47
2019-02-08T14:43:07.570Z,7.83
2019-02-08T14:45:36.189Z,18.27
2019-02-08T14:48:05.005Z,8.63
2019-02-08T14:50:36.412Z,5.83
2019-02-08T14:53:05.448Z,6.50
2019-02-08T14:55:34.074Z,7.23
2019-02-08T14:58:08.121Z,9.10
2019-02-08T15:00:36.730Z,10.07
2019-02-08T15:03:05.761Z,4.23
2019-02-08T15:05:34.360Z,9.87
2019-02-08T15:08:03.020Z,10.47
2019-02-08T15:10:46.409Z,6.33
2019-02-08T15:13:15.002Z,5.70
2019-02-08T15:15:43.622Z,5.43
2019-02-08T15:18:12.198Z,9.33
2019-02-08T15:20:40.744Z,8.33
2019-02-08T15:23:09.495Z,16.00
2019-02-08T15:25:38.101Z,6.90
2019-02-08T15:28:06.817Z,6.40
2019-02-08T15:30:36.883Z,8.77
2019-02-08T15:33:06.585Z,6.60
2019-02-08T15:35:35.582Z,8.63
2019-02-08T15:38:05.373Z,7.00
2019-02-08T15:40:45.237Z,5.80
2019-02-08T15:43:15.851Z,16.57
2019-02-08T15:45:47.697Z,6.83
2019-02-08T15:48:16.482Z,5.13
2019-02-08T15:50:45.113Z,7.60
2019-02-08T15:53:13.768Z,7.40
2019-02-08T15:55:45.368Z,5.67
2019-02-08T15:58:14.406Z,8.50
2019-02-08T16:00:43.045Z,12.27
2019-02-08T16:03:12.733Z,5.33
2019-02-08T16:05:41.454Z,6.27
2019-02-08T16:08:10.063Z,5.10
2019-02-08T16:10:38.785Z,10.53
2019-02-08T16:13:10.282Z,4.97
2019-02-08T16:15:39.068Z,5.43
2019-02-08T16:18:08.227Z,7.23
2019-02-08T16:20:37.250Z,6.97
2019-02-08T16:23:05.940Z,6.50
2019-02-08T16:25:34.593Z,10.97
2019-02-08T16:28:03.276Z,7.20
2019-02-08T16:30:33.866Z,6.10
2019-02-08T16:33:04.721Z,5.40
2019-02-08T16:35:33.289Z,8.83
2019-02-08T16:38:05.049Z,8.93
2019-02-08T16:40:34.331Z,8.47
2019-02-08T16:43:02.875Z,7.63
2019-02-08T16:45:39.470Z,8.03
2019-02-08T16:48:10.043Z,4.20
2019-02-08T16:50:38.770Z,6.33
2019-02-08T16:53:09.387Z,4.13
2019-02-08T16:55:38.235Z,4.67
2019-02-08T16:58:08.821Z,5.43
2019-02-08T17:00:39.702Z,6.63
2019-02-08T17:03:10.809Z,8.67
2019-02-08T17:05:39.624Z,11.00
2019-02-08T17:08:08.316Z,8.70
2019-02-08T17:10:37.037Z,9.13
2019-02-08T17:13:05.923Z,13.23
2019-02-08T17:15:36.442Z,6.40
2019-02-08T17:18:05.646Z,7.00
2019-02-08T17:20:40.356Z,14.90
2019-02-08T17:23:09.269Z,7.00
2019-02-08T17:25:37.921Z,4.87
2019-02-08T17:28:07.128Z,4.73
2019-02-08T17:30:35.858Z,7.47
2019-02-08T17:33:05.551Z,8.53
2019-02-08T17:35:34.112Z,8.43
2019-02-08T17:38:05.873Z,4.63
2019-02-08T17:40:43.076Z,5.60
2019-02-08T17:43:11.694Z,5.67
2019-02-08T17:45:40.672Z,9.17
2019-02-08T17:48:11.776Z,7.80
2019-02-08T17:50:40.447Z,8.13
2019-02-08T17:53:09.155Z,5.70
2019-02-08T17:55:37.798Z,4.23
2019-02-08T17:58:06.689Z,5.33
2019-02-08T18:00:49.731Z,4.17
2019-02-08T18:03:18.274Z,11.90
2019-02-08T18:05:46.993Z,5.47
2019-02-08T18:08:16.027Z,8.33
2019-02-08T18:10:45.147Z,5.70
2019-02-08T18:13:14.223Z,7.90
2019-02-08T18:15:42.900Z,7.40
2019-02-08T18:18:13.996Z,4.57
2019-02-08T18:20:45.321Z,5.03
2019-02-08T18:23:14.362Z,20.10
2019-02-08T18:25:43.136Z,7.53
2019-02-08T18:28:12.093Z,10.20
2019-02-08T18:30:40.807Z,9.23
2019-02-08T18:33:09.430Z,7.03
2019-02-08T18:35:38.441Z,3.87
2019-02-08T18:38:07.239Z,9.97
2019-02-08T18:40:36.056Z,4.80
2019-02-08T18:43:04.835Z,6.93
2019-02-08T18:45:37.545Z,8.40
2019-02-08T18:48:07.355Z,9.43
2019-02-08T18:50:41.809Z,8.70
2019-02-08T18:53:10.780Z,4.23
2019-02-08T18:55:39.375Z,7.70
2019-02-08T18:58:08.192Z,16.23
2019-02-08T19:00:51.407Z,6.40
2019-02-08T19:03:20.494Z,5.43
2019-02-08T19:05:49.492Z,6.70
2019-02-08T19:08:18.065Z,6.90
2019-02-08T19:10:47.235Z,7.20
2019-02-08T19:15:56.101Z,9.90
2019-02-08T19:18:27.897Z,9.93
2019-02-08T19:20:57.645Z,9.20
2019-02-08T19:23:27.498Z,7.50
2019-02-08T19:25:56.691Z,4.37
2019-02-08T19:28:26.856Z,10.77
2019-02-08T19:30:57.657Z,10.23
2019-02-08T19:33:28.780Z,8.87
2019-02-08T19:36:02.741Z,6.10
2019-02-08T19:38:33.753Z,6.97
2019-02-08T19:41:04.643Z,6.30
2019-02-08T19:43:34.151Z,8.83
2019-02-08T19:46:04.602Z,4.70
2019-02-08T19:48:34.505Z,11.00
2019-02-08T19:51:06.024Z,8.40
2019-02-08T19:53:35.652Z,6.20
2019-02-08T19:56:05.413Z,4.27
2019-02-08T19:58:35.021Z,7.33
2019-02-08T20:01:05.574Z,6.93
2019-02-08T20:03:35.667Z,7.83
2019-02-08T20:06:05.515Z,7.07
2019-02-08T20:08:34.838Z,7.00
2019-02-08T20:11:04.664Z,9.00
2019-02-08T20:13:35.578Z,7.10
2019-02-08T20:16:10.023Z,12.43
2019-02-08T20:18:39.777Z,9.77
2019-02-08T20:21:29.823Z,6.93
2019-02-08T20:24:02.246Z,8.57
2019-02-08T20:26:32.313Z,9.03
2019-02-08T20:29:05.023Z,15.37
2019-02-08T20:31:34.163Z,6.73
2019-02-08T20:34:06.370Z,6.13
2019-02-08T20:36:35.789Z,9.53
2019-02-08T20:39:08.008Z,5.90
2019-02-08T20:41:37.778Z,6.60
2019-02-08T20:44:08.462Z,13.33
2019-02-08T20:46:58.417Z,10.93
2019-02-08T20:49:28.460Z,7.43
2019-02-08T20:52:18.742Z,4.23
2019-02-08T20:54:48.746Z,6.80
2019-02-08T20:57:17.841Z,8.20
2019-02-08T20:59:46.568Z,5.87
2019-02-08T21:02:15.645Z,12.13
2019-02-08T21:04:47.600Z,5.90
2019-02-08T21:07:16.462Z,8.57
2019-02-08T21:09:45.184Z,10.90
2019-02-08T21:12:16.753Z,14.10
2019-02-08T21:14:45.463Z,8.30
2019-02-08T21:17:14.073Z,5.37
2019-02-08T21:19:42.735Z,11.30
2019-02-08T21:22:11.276Z,9.70
2019-02-08T21:24:39.856Z,7.57
2019-02-08T21:27:08.411Z,10.47
2019-02-08T21:29:37.050Z,6.87
2019-02-08T21:32:05.974Z,8.23
2019-02-08T21:34:34.683Z,9.03
2019-02-08T21:37:03.644Z,9.63
2019-02-08T21:39:32.619Z,7.93
2019-02-08T21:42:03.877Z,9.33
2019-02-08T21:44:34.165Z,11.67
2019-02-08T21:47:05.721Z,8.13
2019-02-08T21:49:34.306Z,7.93
2019-02-08T21:52:02.856Z,10.70
2019-02-08T21:54:32.072Z,11.70
2019-02-08T21:57:00.906Z,12.20
2019-02-08T21:59:30.709Z,9.03
2019-02-08T22:01:59.638Z,11.80
2019-02-08T22:04:28.218Z,9.90
2019-02-08T22:06:57.176Z,7.07
2019-02-08T22:09:25.831Z,13.20
2019-02-08T22:11:54.393Z,8.77
2019-02-08T22:14:23.021Z,9.60
2019-02-08T22:16:51.596Z,12.57
2019-02-08T22:19:20.162Z,9.13
2019-02-08T22:21:48.728Z,9.57
2019-02-08T22:24:17.329Z,8.77
2019-02-08T22:26:46.419Z,14.07
2019-02-08T22:29:15.056Z,13.57
2019-02-08T22:31:43.671Z,11.03
2019-02-08T22:34:12.239Z,8.40
2019-02-08T22:36:40.812Z,10.80
2019-02-08T22:39:09.743Z,9.50
2019-02-08T22:41:38.364Z,7.70
2019-02-08T22:44:07.014Z,7.60
2019-02-08T22:46:35.583Z,12.67
2019-02-08T22:49:04.349Z,7.73
2019-02-08T22:51:32.902Z,10.47
2019-02-08T22:54:01.587Z,13.70
2019-02-08T22:56:33.290Z,15.90
2019-02-08T22:59:05.182Z,10.23
2019-02-08T23:01:35.783Z,14.20
2019-02-08T23:04:05.578Z,11.97
2019-02-08T23:06:34.218Z,10.17
2019-02-08T23:09:04.324Z,7.37
2019-02-08T23:11:33.043Z,20.87
2019-02-08T23:14:03.175Z,9.10
2019-02-08T23:16:33.522Z,11.40
2019-02-08T23:19:02.152Z,12.97
2019-02-08T23:21:32.418Z,9.70
2019-02-08T23:24:04.189Z,14.57
2019-02-08T23:26:32.835Z,15.70
2019-02-08T23:29:01.456Z,14.00
2019-02-08T23:31:33.054Z,16.10
2019-02-08T23:34:03.120Z,13.63
2019-02-08T23:36:33.203Z,11.47
2019-02-08T23:39:01.826Z,11.33
2019-02-08T23:41:30.413Z,16.40
2019-02-08T23:43:59.035Z,12.43
2019-02-08T23:46:27.610Z,11.50
2019-02-08T23:48:56.477Z,18.60
2019-02-08T23:51:25.479Z,11.70
2019-02-08T23:53:54.045Z,14.40
2019-02-08T23:56:22.627Z,12.33
2019-02-08T23:58:51.173Z,20.70
